sensor_id;sensor_type;location;lat;lon;timestamp;P1;durP1;ratioP1;P2;durP2;ratioP2
57301;SDS011;43149;50.974;18.224;2023-04-30T00:05:11;20.40;;;12.80;;
57301;SDS011;43149;50.974;18.224;2023-04-30T00:15:02;19.60;;;14.00;;
57301;SDS011;43149;50.974;18.224;2023-04-30T00:24:46;20.80;;;13.00;;
57301;SDS011;43149;50.974;18.224;2023-04-30T00:34:29;20.80;;;12.10;;
57301;SDS011;43149;50.974;18.224;2023-04-30T00:44:12;18.70;;;11.50;;
57301;SDS011;43149;50.974;18.224;2023-04-30T01:01:22;16.40;;;5.20;;
57301;SDS011;43149;50.974;18.224;2023-04-30T01:21:08;11.20;;;10.10;;
57301;SDS011;43149;50.974;18.224;2023-04-30T01:31:17;9.90;;;8.20;;
57301;SDS011;43149;50.974;18.224;2023-04-30T01:51:44;12.50;;;6.90;;
57301;SDS011;43149;50.974;18.224;2023-04-30T02:01:31;19.00;;;10.00;;
57301;SDS011;43149;50.974;18.224;2023-04-30T02:11:21;13.90;;;9.30;;
57301;SDS011;43149;50.974;18.224;2023-04-30T02:21:07;15.30;;;9.90;;
57301;SDS011;43149;50.974;18.224;2023-04-30T02:30:50;11.50;;;8.40;;
57301;SDS011;43149;50.974;18.224;2023-04-30T02:40:34;17.60;;;9.20;;
57301;SDS011;43149;50.974;18.224;2023-04-30T02:50:17;10.40;;;7.10;;
57301;SDS011;43149;50.974;18.224;2023-04-30T03:00:02;16.70;;;7.80;;
57301;SDS011;43149;50.974;18.224;2023-04-30T03:09:46;8.50;;;5.20;;
57301;SDS011;43149;50.974;18.224;2023-04-30T03:19:31;8.90;;;7.80;;
57301;SDS011;43149;50.974;18.224;2023-04-30T03:29:16;10.80;;;8.00;;
57301;SDS011;43149;50.974;18.224;2023-04-30T03:39:00;10.40;;;8.20;;
57301;SDS011;43149;50.974;18.224;2023-04-30T03:48:44;13.10;;;7.50;;
57301;SDS011;43149;50.974;18.224;2023-04-30T03:58:28;13.70;;;6.40;;
57301;SDS011;43149;50.974;18.224;2023-04-30T04:08:12;25.00;;;10.70;;
57301;SDS011;43149;50.974;18.224;2023-04-30T04:17:58;6.10;;;5.40;;
57301;SDS011;43149;50.974;18.224;2023-04-30T04:27:42;17.30;;;9.60;;
57301;SDS011;43149;50.974;18.224;2023-04-30T04:37:42;10.00;;;6.60;;
57301;SDS011;43149;50.974;18.224;2023-04-30T04:47:28;12.60;;;9.40;;
57301;SDS011;43149;50.974;18.224;2023-04-30T04:57:12;20.10;;;8.70;;
57301;SDS011;43149;50.974;18.224;2023-04-30T05:06:56;20.00;;;9.50;;
57301;SDS011;43149;50.974;18.224;2023-04-30T05:16:39;9.20;;;6.10;;
57301;SDS011;43149;50.974;18.224;2023-04-30T05:26:26;15.50;;;8.80;;
57301;SDS011;43149;50.974;18.224;2023-04-30T05:36:09;12.90;;;6.30;;
57301;SDS011;43149;50.974;18.224;2023-04-30T05:45:52;8.40;;;5.90;;
57301;SDS011;43149;50.974;18.224;2023-04-30T06:02:53;9.80;;;5.10;;
57301;SDS011;43149;50.974;18.224;2023-04-30T06:12:37;5.40;;;4.90;;
57301;SDS011;43149;50.974;18.224;2023-04-30T06:22:25;5.00;;;4.20;;
57301;SDS011;43149;50.974;18.224;2023-04-30T06:32:09;8.00;;;5.40;;
57301;SDS011;43149;50.974;18.224;2023-04-30T06:41:53;3.50;;;3.20;;
57301;SDS011;43149;50.974;18.224;2023-04-30T06:51:37;6.40;;;5.70;;
57301;SDS011;43149;50.974;18.224;2023-04-30T06:56:28;11.00;;;7.40;;
57301;SDS011;43149;50.974;18.224;2023-04-30T07:06:13;7.50;;;5.90;;
57301;SDS011;43149;50.974;18.224;2023-04-30T07:16:03;16.90;;;4.10;;
57301;SDS011;43149;50.974;18.224;2023-04-30T07:25:48;7.10;;;3.70;;
57301;SDS011;43149;50.974;18.224;2023-04-30T07:35:33;8.10;;;5.80;;
57301;SDS011;43149;50.974;18.224;2023-04-30T07:45:18;10.30;;;4.70;;
57301;SDS011;43149;50.974;18.224;2023-04-30T07:55:02;4.70;;;3.70;;
57301;SDS011;43149;50.974;18.224;2023-04-30T08:04:46;12.20;;;3.10;;
57301;SDS011;43149;50.974;18.224;2023-04-30T08:14:31;4.20;;;3.80;;
57301;SDS011;43149;50.974;18.224;2023-04-30T08:24:17;13.40;;;3.40;;
57301;SDS011;43149;50.974;18.224;2023-04-30T08:34:01;4.70;;;4.30;;
57301;SDS011;43149;50.974;18.224;2023-04-30T08:43:45;2.70;;;2.50;;
57301;SDS011;43149;50.974;18.224;2023-04-30T09:00:53;3.60;;;3.00;;
57301;SDS011;43149;50.974;18.224;2023-04-30T09:10:43;2.70;;;2.20;;
57301;SDS011;43149;50.974;18.224;2023-04-30T09:20:53;7.70;;;2.90;;
57301;SDS011;43149;50.974;18.224;2023-04-30T09:30:38;10.50;;;3.80;;
57301;SDS011;43149;50.974;18.224;2023-04-30T09:40:35;2.80;;;2.20;;
57301;SDS011;43149;50.974;18.224;2023-04-30T09:50:37;7.00;;;2.50;;
57301;SDS011;43149;50.974;18.224;2023-04-30T10:00:35;6.60;;;3.10;;
57301;SDS011;43149;50.974;18.224;2023-04-30T10:08:00;8.60;;;4.00;;
57301;SDS011;43149;50.974;18.224;2023-04-30T10:17:56;18.60;;;3.40;;
57301;SDS011;43149;50.974;18.224;2023-04-30T10:27:44;2.30;;;1.40;;
57301;SDS011;43149;50.974;18.224;2023-04-30T10:38:03;19.50;;;3.60;;
57301;SDS011;43149;50.974;18.224;2023-04-30T10:48:02;10.60;;;3.00;;
57301;SDS011;43149;50.974;18.224;2023-04-30T10:57:56;4.60;;;2.30;;
57301;SDS011;43149;50.974;18.224;2023-04-30T11:08:03;2.10;;;1.20;;
57301;SDS011;43149;50.974;18.224;2023-04-30T11:17:50;5.80;;;3.10;;
57301;SDS011;43149;50.974;18.224;2023-04-30T11:27:41;9.00;;;2.80;;
57301;SDS011;43149;50.974;18.224;2023-04-30T11:37:36;3.00;;;1.60;;
57301;SDS011;43149;50.974;18.224;2023-04-30T11:47:39;4.40;;;2.00;;
57301;SDS011;43149;50.974;18.224;2023-04-30T11:57:39;9.10;;;1.70;;
57301;SDS011;43149;50.974;18.224;2023-04-30T12:07:26;0.60;;;0.60;;
57301;SDS011;43149;50.974;18.224;2023-04-30T12:17:33;5.50;;;2.30;;
57301;SDS011;43149;50.974;18.224;2023-04-30T12:27:20;3.20;;;1.70;;
57301;SDS011;43149;50.974;18.224;2023-04-30T12:37:10;2.90;;;2.50;;
57301;SDS011;43149;50.974;18.224;2023-04-30T12:47:07;5.50;;;1.60;;
57301;SDS011;43149;50.974;18.224;2023-04-30T12:57:05;6.50;;;1.30;;
57301;SDS011;43149;50.974;18.224;2023-04-30T13:07:00;10.10;;;1.60;;
57301;SDS011;43149;50.974;18.224;2023-04-30T13:16:46;14.00;;;1.20;;
57301;SDS011;43149;50.974;18.224;2023-04-30T13:26:30;4.10;;;1.80;;
57301;SDS011;43149;50.974;18.224;2023-04-30T13:36:14;9.20;;;1.90;;
57301;SDS011;43149;50.974;18.224;2023-04-30T13:46:03;2.00;;;1.80;;
57301;SDS011;43149;50.974;18.224;2023-04-30T13:55:48;5.90;;;2.20;;
57301;SDS011;43149;50.974;18.224;2023-04-30T14:05:33;1.60;;;1.50;;
57301;SDS011;43149;50.974;18.224;2023-04-30T14:15:16;3.30;;;1.50;;
57301;SDS011;43149;50.974;18.224;2023-04-30T14:25:03;2.00;;;1.90;;
57301;SDS011;43149;50.974;18.224;2023-04-30T14:34:51;17.40;;;2.10;;
57301;SDS011;43149;50.974;18.224;2023-04-30T14:44:37;0.30;;;0.30;;
57301;SDS011;43149;50.974;18.224;2023-04-30T14:54:22;4.60;;;1.30;;
57301;SDS011;43149;50.974;18.224;2023-04-30T15:04:06;11.60;;;2.30;;
57301;SDS011;43149;50.974;18.224;2023-04-30T15:13:52;13.00;;;1.80;;
57301;SDS011;43149;50.974;18.224;2023-04-30T15:23:39;0.80;;;0.80;;
57301;SDS011;43149;50.974;18.224;2023-04-30T15:33:25;11.50;;;1.80;;
57301;SDS011;43149;50.974;18.224;2023-04-30T15:43:12;18.40;;;2.40;;
57301;SDS011;43149;50.974;18.224;2023-04-30T15:52:56;25.80;;;10.90;;
57301;SDS011;43149;50.974;18.224;2023-04-30T16:02:43;5.50;;;1.50;;
57301;SDS011;43149;50.974;18.224;2023-04-30T16:12:34;2.90;;;1.10;;
57301;SDS011;43149;50.974;18.224;2023-04-30T16:22:24;7.80;;;1.80;;
57301;SDS011;43149;50.974;18.224;2023-04-30T16:32:10;4.30;;;1.50;;
57301;SDS011;43149;50.974;18.224;2023-04-30T16:41:54;6.00;;;1.60;;
57301;SDS011;43149;50.974;18.224;2023-04-30T16:51:40;7.00;;;1.40;;
57301;SDS011;43149;50.974;18.224;2023-04-30T17:01:24;7.20;;;2.00;;
57301;SDS011;43149;50.974;18.224;2023-04-30T17:11:09;3.10;;;1.90;;
57301;SDS011;43149;50.974;18.224;2023-04-30T17:20:54;3.40;;;1.90;;
57301;SDS011;43149;50.974;18.224;2023-04-30T17:30:38;8.80;;;1.90;;
57301;SDS011;43149;50.974;18.224;2023-04-30T17:47:43;7.60;;;2.80;;
57301;SDS011;43149;50.974;18.224;2023-04-30T17:57:33;3.20;;;2.20;;
57301;SDS011;43149;50.974;18.224;2023-04-30T18:07:17;3.50;;;2.60;;
57301;SDS011;43149;50.974;18.224;2023-04-30T18:17:04;4.10;;;2.70;;
57301;SDS011;43149;50.974;18.224;2023-04-30T18:26:55;5.40;;;2.90;;
57301;SDS011;43149;50.974;18.224;2023-04-30T18:36:40;15.80;;;4.70;;
57301;SDS011;43149;50.974;18.224;2023-04-30T18:46:30;15.80;;;7.60;;
57301;SDS011;43149;50.974;18.224;2023-04-30T18:56:16;14.40;;;7.00;;
57301;SDS011;43149;50.974;18.224;2023-04-30T19:06:05;25.30;;;12.10;;
57301;SDS011;43149;50.974;18.224;2023-04-30T19:15:50;5.20;;;4.70;;
57301;SDS011;43149;50.974;18.224;2023-04-30T19:33:10;14.50;;;6.40;;
57301;SDS011;43149;50.974;18.224;2023-04-30T19:42:55;39.70;;;17.50;;
57301;SDS011;43149;50.974;18.224;2023-04-30T19:52:41;69.50;;;27.60;;
57301;SDS011;43149;50.974;18.224;2023-04-30T20:02:28;67.50;;;28.50;;
57301;SDS011;43149;50.974;18.224;2023-04-30T20:12:16;72.00;;;33.70;;
57301;SDS011;43149;50.974;18.224;2023-04-30T20:22:01;42.30;;;22.00;;
57301;SDS011;43149;50.974;18.224;2023-04-30T20:31:47;109.80;;;43.20;;
57301;SDS011;43149;50.974;18.224;2023-04-30T20:41:33;74.40;;;31.00;;
57301;SDS011;43149;50.974;18.224;2023-04-30T20:51:20;70.10;;;31.50;;
57301;SDS011;43149;50.974;18.224;2023-04-30T21:01:07;53.00;;;27.70;;
57301;SDS011;43149;50.974;18.224;2023-04-30T21:10:51;56.00;;;23.80;;
57301;SDS011;43149;50.974;18.224;2023-04-30T21:20:35;33.20;;;16.60;;
57301;SDS011;43149;50.974;18.224;2023-04-30T21:30:19;38.10;;;18.20;;
57301;SDS011;43149;50.974;18.224;2023-04-30T21:40:06;33.60;;;17.90;;
57301;SDS011;43149;50.974;18.224;2023-04-30T21:49:49;26.50;;;14.40;;
57301;SDS011;43149;50.974;18.224;2023-04-30T21:59:32;35.10;;;17.00;;
57301;SDS011;43149;50.974;18.224;2023-04-30T22:09:16;36.90;;;16.10;;
57301;SDS011;43149;50.974;18.224;2023-04-30T22:19:01;25.20;;;14.40;;
57301;SDS011;43149;50.974;18.224;2023-04-30T22:28:46;37.00;;;20.00;;
57301;SDS011;43149;50.974;18.224;2023-04-30T22:36:03;39.80;;;23.10;;
57301;SDS011;43149;50.974;18.224;2023-04-30T22:45:50;25.60;;;14.30;;
57301;SDS011;43149;50.974;18.224;2023-04-30T22:55:34;33.40;;;13.80;;
57301;SDS011;43149;50.974;18.224;2023-04-30T23:05:18;18.70;;;11.20;;
57301;SDS011;43149;50.974;18.224;2023-04-30T23:15:05;36.80;;;12.70;;
57301;SDS011;43149;50.974;18.224;2023-04-30T23:24:48;35.40;;;15.00;;
57301;SDS011;43149;50.974;18.224;2023-04-30T23:34:31;26.60;;;12.80;;
57301;SDS011;43149;50.974;18.224;2023-04-30T23:44:16;23.00;;;12.90;;
57301;SDS011;43149;50.974;18.224;2023-04-30T23:54:00;28.90;;;16.00;;
